Laneport, Texas
Current Conditions -  °F | °C
As of 4:58 PM on Thursday 27 Nov 2014 (Local Time) from KGRK Reporting Station
Clear Clear  
Wind Chill: 58°   Ceiling: Unl
Heat Index: 58°   Visibility: 10mi
Dew Point: 26°   Wind: 6mph
Humidity: 29%   Direction: 130°SE
Pressure: 30.4"   Gusts: NA
Location:  30.5793°N, 97.5096°W
Report Text: KGRK 272258Z AUTO 13005KT 10SM CLR 14/M03 A3040 RMK AO2 SLP297 T01421035
Loading
Personal Weather Stations






























Interactive Weather Map New forecast layout! Learn more

10-Day Weather Forecast

Advertisements
Track Severe Weather on mobile